The Weather Page

Only for information, data not for operational purposes.

ELLX Aeronautical Report by METEOLUX

ELLX Current METAR and TAF

ELLX 142350Z AUTO 03009KT 9999 BKN093/// 00/M02 Q1027 NOSIG

TAF ELLX 141700Z 1418/1524 03010KT CAVOK TEMPO 1418/1420 FEW050TCU PROB30 TEMPO 1503/1507 3500 BR PROB40 TEMPO 1511/1518 05015G25KT -SHSN SCT040TCU

METAR's and TAF's

METAR/TAF from US-NOAA-ADDS. Enter one or more ICAO codes separated by spaces:

METAR TAF 

A list of weather stations and their ICAO and IATA codes is found on this page.

Flight Preparation

EUMETSAT Infrared

Eumetsat Infrared

METEOX Radar

METEOX Radar Image

Comments are closed.